sensor_id;sensor_type;location;lat;lon;timestamp;temperature;humidity
31379;DHT22;61664;48.112;11.662;2022-11-13T00:01:20;8.10;76.60
31379;DHT22;61664;48.112;11.662;2022-11-13T00:03:49;8.10;76.00
31379;DHT22;61664;48.112;11.662;2022-11-13T00:06:17;8.20;76.50
31379;DHT22;61664;48.112;11.662;2022-11-13T00:08:45;8.20;76.50
31379;DHT22;61664;48.112;11.662;2022-11-13T00:11:16;8.10;76.40
31379;DHT22;61664;48.112;11.662;2022-11-13T00:13:45;8.10;76.40
31379;DHT22;61664;48.112;11.662;2022-11-13T00:16:15;8.10;76.50
31379;DHT22;61664;48.112;11.662;2022-11-13T00:18:44;8.00;76.40
31379;DHT22;61664;48.112;11.662;2022-11-13T00:21:17;8.10;76.50
31379;DHT22;61664;48.112;11.662;2022-11-13T00:23:46;8.10;76.40
31379;DHT22;61664;48.112;11.662;2022-11-13T00:26:15;8.20;76.80
31379;DHT22;61664;48.112;11.662;2022-11-13T00:28:42;8.10;76.70
31379;DHT22;61664;48.112;11.662;2022-11-13T00:31:11;8.00;76.70
31379;DHT22;61664;48.112;11.662;2022-11-13T00:33:39;8.10;76.70
31379;DHT22;61664;48.112;11.662;2022-11-13T00:36:27;8.10;76.60
31379;DHT22;61664;48.112;11.662;2022-11-13T00:38:54;8.10;76.60
31379;DHT22;61664;48.112;11.662;2022-11-13T00:41:23;8.10;76.60
31379;DHT22;61664;48.112;11.662;2022-11-13T00:43:50;8.10;76.70
31379;DHT22;61664;48.112;11.662;2022-11-13T00:46:18;8.10;76.60
31379;DHT22;61664;48.112;11.662;2022-11-13T00:48:45;8.10;76.50
31379;DHT22;61664;48.112;11.662;2022-11-13T00:51:12;8.00;76.40
31379;DHT22;61664;48.112;11.662;2022-11-13T00:53:39;8.00;76.40
31379;DHT22;61664;48.112;11.662;2022-11-13T00:56:06;8.00;76.30
31379;DHT22;61664;48.112;11.662;2022-11-13T00:58:33;8.00;76.70
31379;DHT22;61664;48.112;11.662;2022-11-13T01:01:10;7.90;76.20
31379;DHT22;61664;48.112;11.662;2022-11-13T01:03:39;7.80;75.60
31379;DHT22;61664;48.112;11.662;2022-11-13T01:06:18;7.80;76.10
31379;DHT22;61664;48.112;11.662;2022-11-13T01:08:48;7.70;75.60
31379;DHT22;61664;48.112;11.662;2022-11-13T01:11:18;7.70;76.30
31379;DHT22;61664;48.112;11.662;2022-11-13T01:13:46;7.70;76.50
31379;DHT22;61664;48.112;11.662;2022-11-13T01:16:16;7.70;75.50
31379;DHT22;61664;48.112;11.662;2022-11-13T01:18:44;7.70;76.70
31379;DHT22;61664;48.112;11.662;2022-11-13T01:21:17;7.60;76.80
31379;DHT22;61664;48.112;11.662;2022-11-13T01:23:46;7.60;76.40
31379;DHT22;61664;48.112;11.662;2022-11-13T01:26:20;7.60;76.90
31379;DHT22;61664;48.112;11.662;2022-11-13T01:28:49;7.50;76.70
31379;DHT22;61664;48.112;11.662;2022-11-13T01:31:19;7.60;77.10
31379;DHT22;61664;48.112;11.662;2022-11-13T01:33:48;7.50;77.00
31379;DHT22;61664;48.112;11.662;2022-11-13T01:36:18;7.60;77.00
31379;DHT22;61664;48.112;11.662;2022-11-13T01:38:48;7.60;76.80
31379;DHT22;61664;48.112;11.662;2022-11-13T01:41:19;7.60;77.00
31379;DHT22;61664;48.112;11.662;2022-11-13T01:43:50;7.50;77.00
31379;DHT22;61664;48.112;11.662;2022-11-13T01:46:28;7.60;77.20
31379;DHT22;61664;48.112;11.662;2022-11-13T01:51:38;7.70;76.70
31379;DHT22;61664;48.112;11.662;2022-11-13T01:54:10;7.60;77.00
31379;DHT22;61664;48.112;11.662;2022-11-13T01:56:40;7.70;77.00
31379;DHT22;61664;48.112;11.662;2022-11-13T01:59:16;7.60;77.00
31379;DHT22;61664;48.112;11.662;2022-11-13T02:01:45;7.60;77.00
31379;DHT22;61664;48.112;11.662;2022-11-13T02:04:12;7.60;76.80
31379;DHT22;61664;48.112;11.662;2022-11-13T02:06:43;7.60;76.70
31379;DHT22;61664;48.112;11.662;2022-11-13T02:09:14;7.60;76.80
31379;DHT22;61664;48.112;11.662;2022-11-13T02:11:43;7.60;77.00
31379;DHT22;61664;48.112;11.662;2022-11-13T02:14:11;7.60;77.10
31379;DHT22;61664;48.112;11.662;2022-11-13T02:16:41;7.50;77.00
31379;DHT22;61664;48.112;11.662;2022-11-13T02:19:18;7.60;77.20
31379;DHT22;61664;48.112;11.662;2022-11-13T02:24:39;7.60;76.90
31379;DHT22;61664;48.112;11.662;2022-11-13T02:32:50;7.60;76.30
31379;DHT22;61664;48.112;11.662;2022-11-13T02:35:28;7.60;76.80
31379;DHT22;61664;48.112;11.662;2022-11-13T02:38:01;7.60;76.60
31379;DHT22;61664;48.112;11.662;2022-11-13T02:40:31;7.60;76.90
31379;DHT22;61664;48.112;11.662;2022-11-13T02:42:58;7.70;77.00
31379;DHT22;61664;48.112;11.662;2022-11-13T02:45:25;7.60;77.00
31379;DHT22;61664;48.112;11.662;2022-11-13T02:47:52;7.70;77.10
31379;DHT22;61664;48.112;11.662;2022-11-13T02:50:19;7.70;77.00
31379;DHT22;61664;48.112;11.662;2022-11-13T02:52:46;7.60;76.70
31379;DHT22;61664;48.112;11.662;2022-11-13T02:55:13;7.60;76.60
31379;DHT22;61664;48.112;11.662;2022-11-13T02:57:40;7.60;76.50
31379;DHT22;61664;48.112;11.662;2022-11-13T03:00:07;7.60;76.40
31379;DHT22;61664;48.112;11.662;2022-11-13T03:02:39;7.60;76.40
31379;DHT22;61664;48.112;11.662;2022-11-13T03:05:07;7.60;76.30
31379;DHT22;61664;48.112;11.662;2022-11-13T03:07:40;7.60;76.20
31379;DHT22;61664;48.112;11.662;2022-11-13T03:10:09;7.50;76.00
31379;DHT22;61664;48.112;11.662;2022-11-13T03:12:38;7.50;75.60
31379;DHT22;61664;48.112;11.662;2022-11-13T03:15:07;7.40;75.60
31379;DHT22;61664;48.112;11.662;2022-11-13T03:17:34;7.40;75.40
31379;DHT22;61664;48.112;11.662;2022-11-13T03:20:03;7.30;75.40
31379;DHT22;61664;48.112;11.662;2022-11-13T03:22:30;7.20;75.50
31379;DHT22;61664;48.112;11.662;2022-11-13T03:24:57;7.20;75.40
31379;DHT22;61664;48.112;11.662;2022-11-13T03:27:24;7.10;75.30
31379;DHT22;61664;48.112;11.662;2022-11-13T03:29:51;7.00;75.40
31379;DHT22;61664;48.112;11.662;2022-11-13T03:32:18;7.00;75.80
31379;DHT22;61664;48.112;11.662;2022-11-13T03:34:44;7.00;76.20
31379;DHT22;61664;48.112;11.662;2022-11-13T03:37:11;6.90;76.30
31379;DHT22;61664;48.112;11.662;2022-11-13T03:39:38;6.90;76.40
31379;DHT22;61664;48.112;11.662;2022-11-13T03:42:05;6.90;76.50
31379;DHT22;61664;48.112;11.662;2022-11-13T03:44:32;6.90;76.70
31379;DHT22;61664;48.112;11.662;2022-11-13T03:46:59;6.90;76.80
31379;DHT22;61664;48.112;11.662;2022-11-13T03:49:26;6.90;76.90
31379;DHT22;61664;48.112;11.662;2022-11-13T03:51:53;6.90;76.90
31379;DHT22;61664;48.112;11.662;2022-11-13T03:54:19;6.90;76.90
31379;DHT22;61664;48.112;11.662;2022-11-13T03:56:46;6.90;76.80
31379;DHT22;61664;48.112;11.662;2022-11-13T03:59:13;7.00;76.70
31379;DHT22;61664;48.112;11.662;2022-11-13T04:01:40;7.00;76.70
31379;DHT22;61664;48.112;11.662;2022-11-13T04:04:07;7.00;76.60
31379;DHT22;61664;48.112;11.662;2022-11-13T04:06:34;7.00;76.60
31379;DHT22;61664;48.112;11.662;2022-11-13T04:09:02;7.00;76.70
31379;DHT22;61664;48.112;11.662;2022-11-13T04:11:29;7.00;76.60
31379;DHT22;61664;48.112;11.662;2022-11-13T04:13:55;7.00;76.50
31379;DHT22;61664;48.112;11.662;2022-11-13T04:16:22;7.00;76.50
31379;DHT22;61664;48.112;11.662;2022-11-13T04:18:49;7.00;76.40
31379;DHT22;61664;48.112;11.662;2022-11-13T04:21:16;7.00;76.30
31379;DHT22;61664;48.112;11.662;2022-11-13T04:23:43;7.00;76.30
31379;DHT22;61664;48.112;11.662;2022-11-13T04:26:10;7.00;76.40
31379;DHT22;61664;48.112;11.662;2022-11-13T04:28:36;7.00;76.30
31379;DHT22;61664;48.112;11.662;2022-11-13T04:31:03;7.00;76.30
31379;DHT22;61664;48.112;11.662;2022-11-13T04:33:30;6.90;76.10
31379;DHT22;61664;48.112;11.662;2022-11-13T04:35:57;6.90;76.00
31379;DHT22;61664;48.112;11.662;2022-11-13T04:38:24;6.90;76.20
31379;DHT22;61664;48.112;11.662;2022-11-13T04:40:51;6.90;76.20
31379;DHT22;61664;48.112;11.662;2022-11-13T04:43:38;6.90;76.20
31379;DHT22;61664;48.112;11.662;2022-11-13T04:46:05;6.90;76.20
31379;DHT22;61664;48.112;11.662;2022-11-13T04:48:32;6.90;76.20
31379;DHT22;61664;48.112;11.662;2022-11-13T04:50:59;6.80;76.10
31379;DHT22;61664;48.112;11.662;2022-11-13T04:53:26;6.90;76.30
31379;DHT22;61664;48.112;11.662;2022-11-13T04:55:53;6.80;76.30
31379;DHT22;61664;48.112;11.662;2022-11-13T04:58:20;6.80;76.20
31379;DHT22;61664;48.112;11.662;2022-11-13T05:00:47;6.80;76.20
31379;DHT22;61664;48.112;11.662;2022-11-13T05:03:14;6.80;76.10
31379;DHT22;61664;48.112;11.662;2022-11-13T05:05:40;6.80;76.00
31379;DHT22;61664;48.112;11.662;2022-11-13T05:08:07;6.70;76.10
31379;DHT22;61664;48.112;11.662;2022-11-13T05:10:34;6.80;76.30
31379;DHT22;61664;48.112;11.662;2022-11-13T05:13:01;6.80;76.40
31379;DHT22;61664;48.112;11.662;2022-11-13T05:15:28;6.70;76.30
31379;DHT22;61664;48.112;11.662;2022-11-13T05:17:56;6.80;76.20
31379;DHT22;61664;48.112;11.662;2022-11-13T05:20:23;6.90;76.30
31379;DHT22;61664;48.112;11.662;2022-11-13T05:22:50;6.70;76.20
31379;DHT22;61664;48.112;11.662;2022-11-13T05:25:17;6.70;76.30
31379;DHT22;61664;48.112;11.662;2022-11-13T05:27:43;6.70;76.40
31379;DHT22;61664;48.112;11.662;2022-11-13T05:30:10;6.70;76.30
31379;DHT22;61664;48.112;11.662;2022-11-13T05:32:37;6.70;76.40
31379;DHT22;61664;48.112;11.662;2022-11-13T05:35:04;6.60;76.40
31379;DHT22;61664;48.112;11.662;2022-11-13T05:37:31;6.70;76.50
31379;DHT22;61664;48.112;11.662;2022-11-13T05:39:58;6.70;77.00
31379;DHT22;61664;48.112;11.662;2022-11-13T05:42:25;6.70;76.40
31379;DHT22;61664;48.112;11.662;2022-11-13T05:44:51;6.70;76.50
31379;DHT22;61664;48.112;11.662;2022-11-13T05:47:18;6.60;76.50
31379;DHT22;61664;48.112;11.662;2022-11-13T05:49:45;6.70;76.60
31379;DHT22;61664;48.112;11.662;2022-11-13T05:52:12;6.60;76.30
31379;DHT22;61664;48.112;11.662;2022-11-13T05:54:39;6.70;76.40
31379;DHT22;61664;48.112;11.662;2022-11-13T05:57:06;6.60;76.50
31379;DHT22;61664;48.112;11.662;2022-11-13T05:59:32;6.60;76.40
31379;DHT22;61664;48.112;11.662;2022-11-13T06:01:59;6.60;76.50
31379;DHT22;61664;48.112;11.662;2022-11-13T06:04:26;6.60;76.50
31379;DHT22;61664;48.112;11.662;2022-11-13T06:06:53;6.60;76.40
31379;DHT22;61664;48.112;11.662;2022-11-13T06:09:20;6.70;76.50
31379;DHT22;61664;48.112;11.662;2022-11-13T06:11:47;6.60;76.40
31379;DHT22;61664;48.112;11.662;2022-11-13T06:14:14;6.60;76.50
31379;DHT22;61664;48.112;11.662;2022-11-13T06:16:41;6.60;76.40
31379;DHT22;61664;48.112;11.662;2022-11-13T06:19:09;6.60;76.40
31379;DHT22;61664;48.112;11.662;2022-11-13T06:21:38;6.60;76.20
31379;DHT22;61664;48.112;11.662;2022-11-13T06:24:09;6.60;76.20
31379;DHT22;61664;48.112;11.662;2022-11-13T06:26:37;6.60;76.00
31379;DHT22;61664;48.112;11.662;2022-11-13T06:29:06;6.70;74.70
31379;DHT22;61664;48.112;11.662;2022-11-13T06:31:36;6.70;75.90
31379;DHT22;61664;48.112;11.662;2022-11-13T06:34:04;6.60;75.80
31379;DHT22;61664;48.112;11.662;2022-11-13T06:36:33;6.60;75.60
31379;DHT22;61664;48.112;11.662;2022-11-13T06:39:05;6.50;75.50
31379;DHT22;61664;48.112;11.662;2022-11-13T06:41:33;6.50;75.30
31379;DHT22;61664;48.112;11.662;2022-11-13T06:44:00;6.50;75.60
31379;DHT22;61664;48.112;11.662;2022-11-13T06:46:29;6.40;75.70
31379;DHT22;61664;48.112;11.662;2022-11-13T06:48:57;6.50;75.70
31379;DHT22;61664;48.112;11.662;2022-11-13T06:51:27;6.40;75.70
31379;DHT22;61664;48.112;11.662;2022-11-13T06:53:54;6.40;75.70
31379;DHT22;61664;48.112;11.662;2022-11-13T06:56:22;6.40;75.90
31379;DHT22;61664;48.112;11.662;2022-11-13T06:58:50;6.30;76.60
31379;DHT22;61664;48.112;11.662;2022-11-13T07:01:21;6.40;76.40
31379;DHT22;61664;48.112;11.662;2022-11-13T07:03:49;6.40;76.00
31379;DHT22;61664;48.112;11.662;2022-11-13T07:06:21;6.50;76.50
31379;DHT22;61664;48.112;11.662;2022-11-13T07:08:50;6.50;76.30
31379;DHT22;61664;48.112;11.662;2022-11-13T07:11:19;6.50;76.10
31379;DHT22;61664;48.112;11.662;2022-11-13T07:13:49;6.40;75.80
31379;DHT22;61664;48.112;11.662;2022-11-13T07:16:16;6.40;76.00
31379;DHT22;61664;48.112;11.662;2022-11-13T07:18:49;6.50;76.20
31379;DHT22;61664;48.112;11.662;2022-11-13T07:21:20;6.50;75.90
31379;DHT22;61664;48.112;11.662;2022-11-13T07:23:48;6.50;76.30
31379;DHT22;61664;48.112;11.662;2022-11-13T07:26:16;6.60;76.40
31379;DHT22;61664;48.112;11.662;2022-11-13T07:28:44;6.50;76.40
31379;DHT22;61664;48.112;11.662;2022-11-13T07:31:12;6.60;76.70
31379;DHT22;61664;48.112;11.662;2022-11-13T07:33:40;6.60;76.80
31379;DHT22;61664;48.112;11.662;2022-11-13T07:36:08;6.70;76.80
31379;DHT22;61664;48.112;11.662;2022-11-13T07:38:36;6.70;76.70
31379;DHT22;61664;48.112;11.662;2022-11-13T07:41:03;6.90;76.80
31379;DHT22;61664;48.112;11.662;2022-11-13T07:43:30;6.80;76.70
31379;DHT22;61664;48.112;11.662;2022-11-13T07:45:58;6.70;76.50
31379;DHT22;61664;48.112;11.662;2022-11-13T07:48:25;6.80;76.40
31379;DHT22;61664;48.112;11.662;2022-11-13T07:50:59;6.90;76.30
31379;DHT22;61664;48.112;11.662;2022-11-13T07:53:27;6.90;76.20
31379;DHT22;61664;48.112;11.662;2022-11-13T07:55:54;6.90;76.40
31379;DHT22;61664;48.112;11.662;2022-11-13T07:58:21;6.90;76.30
31379;DHT22;61664;48.112;11.662;2022-11-13T08:00:48;6.90;76.50
31379;DHT22;61664;48.112;11.662;2022-11-13T08:03:17;6.90;76.70
31379;DHT22;61664;48.112;11.662;2022-11-13T08:05:44;6.90;76.70
31379;DHT22;61664;48.112;11.662;2022-11-13T08:08:12;7.00;76.90
31379;DHT22;61664;48.112;11.662;2022-11-13T08:10:40;7.00;76.80
31379;DHT22;61664;48.112;11.662;2022-11-13T08:13:08;7.10;76.80
31379;DHT22;61664;48.112;11.662;2022-11-13T08:15:36;7.10;76.90
31379;DHT22;61664;48.112;11.662;2022-11-13T08:18:04;7.20;77.00
31379;DHT22;61664;48.112;11.662;2022-11-13T08:20:31;7.30;76.90
31379;DHT22;61664;48.112;11.662;2022-11-13T08:23:00;7.40;76.80
31379;DHT22;61664;48.112;11.662;2022-11-13T08:25:29;7.50;76.90
31379;DHT22;61664;48.112;11.662;2022-11-13T08:27:58;7.50;77.20
31379;DHT22;61664;48.112;11.662;2022-11-13T08:30:26;7.50;77.00
31379;DHT22;61664;48.112;11.662;2022-11-13T08:32:54;7.60;76.60
31379;DHT22;61664;48.112;11.662;2022-11-13T08:35:21;7.70;76.30
31379;DHT22;61664;48.112;11.662;2022-11-13T08:38:00;7.70;76.10
31379;DHT22;61664;48.112;11.662;2022-11-13T08:40:28;7.70;75.30
31379;DHT22;61664;48.112;11.662;2022-11-13T08:43:00;7.70;75.70
31379;DHT22;61664;48.112;11.662;2022-11-13T08:45:29;7.70;75.40
31379;DHT22;61664;48.112;11.662;2022-11-13T08:48:00;7.70;76.20
31379;DHT22;61664;48.112;11.662;2022-11-13T08:50:29;7.80;76.20
31379;DHT22;61664;48.112;11.662;2022-11-13T08:52:58;7.80;76.70
31379;DHT22;61664;48.112;11.662;2022-11-13T08:55:27;7.90;76.70
31379;DHT22;61664;48.112;11.662;2022-11-13T08:58:00;8.00;76.70
31379;DHT22;61664;48.112;11.662;2022-11-13T09:00:29;8.10;76.30
31379;DHT22;61664;48.112;11.662;2022-11-13T09:02:58;8.20;76.90
31379;DHT22;61664;48.112;11.662;2022-11-13T09:05:27;8.20;76.40
31379;DHT22;61664;48.112;11.662;2022-11-13T09:07:59;8.40;76.60
31379;DHT22;61664;48.112;11.662;2022-11-13T09:10:27;8.40;75.60
31379;DHT22;61664;48.112;11.662;2022-11-13T09:12:55;8.40;75.90
31379;DHT22;61664;48.112;11.662;2022-11-13T09:15:24;8.50;75.80
31379;DHT22;61664;48.112;11.662;2022-11-13T09:17:56;8.60;76.00
31379;DHT22;61664;48.112;11.662;2022-11-13T09:20:24;8.70;75.90
31379;DHT22;61664;48.112;11.662;2022-11-13T09:22:56;8.60;76.50
31379;DHT22;61664;48.112;11.662;2022-11-13T09:25:32;8.70;75.50
31379;DHT22;61664;48.112;11.662;2022-11-13T09:28:04;8.90;76.30
31379;DHT22;61664;48.112;11.662;2022-11-13T09:30:32;8.90;76.40
31379;DHT22;61664;48.112;11.662;2022-11-13T09:33:00;9.00;76.20
31379;DHT22;61664;48.112;11.662;2022-11-13T09:35:28;9.10;76.60
31379;DHT22;61664;48.112;11.662;2022-11-13T09:38:08;9.20;76.10
31379;DHT22;61664;48.112;11.662;2022-11-13T09:46:10;9.40;73.80
31379;DHT22;61664;48.112;11.662;2022-11-13T09:48:46;9.50;75.30
31379;DHT22;61664;48.112;11.662;2022-11-13T09:51:29;9.60;76.80
31379;DHT22;61664;48.112;11.662;2022-11-13T09:54:03;9.80;74.90
31379;DHT22;61664;48.112;11.662;2022-11-13T09:56:39;9.90;75.50
31379;DHT22;61664;48.112;11.662;2022-11-13T09:59:22;10.00;74.10
31379;DHT22;61664;48.112;11.662;2022-11-13T10:04:54;10.20;76.10
31379;DHT22;61664;48.112;11.662;2022-11-13T10:12:42;10.80;73.10
31379;DHT22;61664;48.112;11.662;2022-11-13T10:15:12;10.90;74.70
31379;DHT22;61664;48.112;11.662;2022-11-13T10:20:54;10.80;71.40
31379;DHT22;61664;48.112;11.662;2022-11-13T10:23:27;10.80;70.90
31379;DHT22;61664;48.112;11.662;2022-11-13T10:26:06;10.70;72.10
31379;DHT22;61664;48.112;11.662;2022-11-13T10:28:40;10.70;72.40
31379;DHT22;61664;48.112;11.662;2022-11-13T10:31:17;10.50;72.20
31379;DHT22;61664;48.112;11.662;2022-11-13T10:33:43;10.50;72.30
31379;DHT22;61664;48.112;11.662;2022-11-13T10:36:34;10.20;72.80
31379;DHT22;61664;48.112;11.662;2022-11-13T10:39:21;10.20;72.30
31379;DHT22;61664;48.112;11.662;2022-11-13T10:41:50;10.30;75.10
31379;DHT22;61664;48.112;11.662;2022-11-13T10:44:27;10.40;75.70
31379;DHT22;61664;48.112;11.662;2022-11-13T10:47:28;10.50;75.40
31379;DHT22;61664;48.112;11.662;2022-11-13T10:50:22;10.70;73.20
31379;DHT22;61664;48.112;11.662;2022-11-13T10:52:53;10.90;78.00
31379;DHT22;61664;48.112;11.662;2022-11-13T10:58:02;11.80;77.50
31379;DHT22;61664;48.112;11.662;2022-11-13T11:00:38;12.40;80.20
31379;DHT22;61664;48.112;11.662;2022-11-13T11:03:14;12.90;79.30
31379;DHT22;61664;48.112;11.662;2022-11-13T11:06:11;13.40;76.40
31379;DHT22;61664;48.112;11.662;2022-11-13T11:08:38;13.80;71.70
31379;DHT22;61664;48.112;11.662;2022-11-13T11:11:16;14.10;74.80
31379;DHT22;61664;48.112;11.662;2022-11-13T11:14:35;14.20;69.90
31379;DHT22;61664;48.112;11.662;2022-11-13T11:17:05;14.30;68.10
31379;DHT22;61664;48.112;11.662;2022-11-13T11:19:36;14.40;71.70
31379;DHT22;61664;48.112;11.662;2022-11-13T11:22:12;14.30;71.00
31379;DHT22;61664;48.112;11.662;2022-11-13T11:24:54;14.40;71.80
31379;DHT22;61664;48.112;11.662;2022-11-13T11:27:40;14.50;71.20
31379;DHT22;61664;48.112;11.662;2022-11-13T11:30:20;14.80;69.30
31379;DHT22;61664;48.112;11.662;2022-11-13T11:32:59;14.90;69.60
31379;DHT22;61664;48.112;11.662;2022-11-13T11:42:18;15.00;66.30
31379;DHT22;61664;48.112;11.662;2022-11-13T11:45:14;14.90;65.50
31379;DHT22;61664;48.112;11.662;2022-11-13T11:47:42;14.70;65.30
31379;DHT22;61664;48.112;11.662;2022-11-13T11:50:12;14.50;67.70
31379;DHT22;61664;48.112;11.662;2022-11-13T11:58:48;13.80;66.80
31379;DHT22;61664;48.112;11.662;2022-11-13T12:01:48;13.60;66.00
31379;DHT22;61664;48.112;11.662;2022-11-13T12:07:46;13.40;66.70
31379;DHT22;61664;48.112;11.662;2022-11-13T12:10:45;13.20;66.70
31379;DHT22;61664;48.112;11.662;2022-11-13T12:13:56;13.20;69.60
31379;DHT22;61664;48.112;11.662;2022-11-13T12:16:33;13.30;71.20
31379;DHT22;61664;48.112;11.662;2022-11-13T12:35:57;13.10;69.90
31379;DHT22;61664;48.112;11.662;2022-11-13T12:41:26;13.10;70.90
31379;DHT22;61664;48.112;11.662;2022-11-13T12:46:52;13.10;69.90
31379;DHT22;61664;48.112;11.662;2022-11-13T12:49:27;13.10;71.20
31379;DHT22;61664;48.112;11.662;2022-11-13T12:52:19;13.10;70.50
31379;DHT22;61664;48.112;11.662;2022-11-13T12:54:48;13.10;70.70
31379;DHT22;61664;48.112;11.662;2022-11-13T12:57:21;13.20;71.80
31379;DHT22;61664;48.112;11.662;2022-11-13T12:59:57;13.20;70.90
31379;DHT22;61664;48.112;11.662;2022-11-13T13:12:58;13.50;69.70
31379;DHT22;61664;48.112;11.662;2022-11-13T13:15:59;13.60;69.80
31379;DHT22;61664;48.112;11.662;2022-11-13T13:18:33;13.60;70.40
31379;DHT22;61664;48.112;11.662;2022-11-13T13:23:42;13.80;71.70
31379;DHT22;61664;48.112;11.662;2022-11-13T13:26:24;13.80;70.60
31379;DHT22;61664;48.112;11.662;2022-11-13T13:28:53;14.00;71.50
31379;DHT22;61664;48.112;11.662;2022-11-13T13:43:02;14.70;69.20
31379;DHT22;61664;48.112;11.662;2022-11-13T13:45:49;14.70;70.30
31379;DHT22;61664;48.112;11.662;2022-11-13T13:48:28;14.80;70.70
31379;DHT22;61664;48.112;11.662;2022-11-13T13:50:57;14.90;69.90
31379;DHT22;61664;48.112;11.662;2022-11-13T13:53:29;15.00;68.60
31379;DHT22;61664;48.112;11.662;2022-11-13T13:56:01;15.00;69.70
31379;DHT22;61664;48.112;11.662;2022-11-13T13:58:32;15.00;69.30
31379;DHT22;61664;48.112;11.662;2022-11-13T14:01:04;15.00;68.90
31379;DHT22;61664;48.112;11.662;2022-11-13T14:03:48;15.10;69.60
31379;DHT22;61664;48.112;11.662;2022-11-13T14:06:20;15.20;70.00
31379;DHT22;61664;48.112;11.662;2022-11-13T14:08:48;15.40;68.20
31379;DHT22;61664;48.112;11.662;2022-11-13T14:11:25;15.60;70.00
31379;DHT22;61664;48.112;11.662;2022-11-13T14:14:06;15.80;67.30
31379;DHT22;61664;48.112;11.662;2022-11-13T14:16:52;15.90;66.00
31379;DHT22;61664;48.112;11.662;2022-11-13T14:19:21;15.90;66.00
31379;DHT22;61664;48.112;11.662;2022-11-13T14:22:00;15.90;67.70
31379;DHT22;61664;48.112;11.662;2022-11-13T14:24:39;15.80;66.40
31379;DHT22;61664;48.112;11.662;2022-11-13T14:27:22;15.70;65.20
31379;DHT22;61664;48.112;11.662;2022-11-13T14:30:01;15.60;66.00
31379;DHT22;61664;48.112;11.662;2022-11-13T14:32:32;15.50;64.00
31379;DHT22;61664;48.112;11.662;2022-11-13T14:35:21;15.30;66.20
31379;DHT22;61664;48.112;11.662;2022-11-13T14:37:53;15.20;64.90
31379;DHT22;61664;48.112;11.662;2022-11-13T14:40:26;15.10;66.90
31379;DHT22;61664;48.112;11.662;2022-11-13T14:43:02;14.90;66.00
31379;DHT22;61664;48.112;11.662;2022-11-13T14:45:33;14.80;66.80
31379;DHT22;61664;48.112;11.662;2022-11-13T14:48:23;14.80;67.40
31379;DHT22;61664;48.112;11.662;2022-11-13T14:50:58;14.60;65.00
31379;DHT22;61664;48.112;11.662;2022-11-13T14:53:35;14.50;66.70
31379;DHT22;61664;48.112;11.662;2022-11-13T14:56:07;14.40;67.10
31379;DHT22;61664;48.112;11.662;2022-11-13T14:58:44;14.30;67.80
31379;DHT22;61664;48.112;11.662;2022-11-13T15:01:24;14.30;66.70
31379;DHT22;61664;48.112;11.662;2022-11-13T15:03:51;14.20;66.80
31379;DHT22;61664;48.112;11.662;2022-11-13T15:06:23;14.20;68.40
31379;DHT22;61664;48.112;11.662;2022-11-13T15:08:56;14.10;68.40
31379;DHT22;61664;48.112;11.662;2022-11-13T15:11:25;14.00;68.20
31379;DHT22;61664;48.112;11.662;2022-11-13T15:13:52;13.90;68.50
31379;DHT22;61664;48.112;11.662;2022-11-13T15:16:25;13.90;68.80
31379;DHT22;61664;48.112;11.662;2022-11-13T15:19:03;13.80;68.00
31379;DHT22;61664;48.112;11.662;2022-11-13T15:21:34;13.70;67.90
31379;DHT22;61664;48.112;11.662;2022-11-13T15:24:01;13.60;68.80
31379;DHT22;61664;48.112;11.662;2022-11-13T15:26:28;13.60;68.90
31379;DHT22;61664;48.112;11.662;2022-11-13T15:28:55;13.50;68.90
31379;DHT22;61664;48.112;11.662;2022-11-13T15:31:32;13.40;68.90
31379;DHT22;61664;48.112;11.662;2022-11-13T15:34:01;13.30;67.90
31379;DHT22;61664;48.112;11.662;2022-11-13T15:36:28;13.20;69.00
31379;DHT22;61664;48.112;11.662;2022-11-13T15:38:55;13.20;69.20
31379;DHT22;61664;48.112;11.662;2022-11-13T15:41:24;13.00;69.20
31379;DHT22;61664;48.112;11.662;2022-11-13T15:43:53;13.00;69.70
31379;DHT22;61664;48.112;11.662;2022-11-13T15:46:22;12.90;68.10
31379;DHT22;61664;48.112;11.662;2022-11-13T15:48:50;12.80;69.40
31379;DHT22;61664;48.112;11.662;2022-11-13T15:51:24;12.60;69.50
31379;DHT22;61664;48.112;11.662;2022-11-13T15:56:52;12.50;69.30
31379;DHT22;61664;48.112;11.662;2022-11-13T15:59:19;12.30;69.80
31379;DHT22;61664;48.112;11.662;2022-11-13T16:01:46;12.30;70.00
31379;DHT22;61664;48.112;11.662;2022-11-13T16:04:13;12.20;70.10
31379;DHT22;61664;48.112;11.662;2022-11-13T16:06:42;12.10;70.10
31379;DHT22;61664;48.112;11.662;2022-11-13T16:09:12;12.00;70.20
31379;DHT22;61664;48.112;11.662;2022-11-13T16:11:40;11.90;70.20
31379;DHT22;61664;48.112;11.662;2022-11-13T16:14:08;11.80;70.40
31379;DHT22;61664;48.112;11.662;2022-11-13T16:16:38;11.70;70.40
31379;DHT22;61664;48.112;11.662;2022-11-13T16:19:12;11.60;70.40
31379;DHT22;61664;48.112;11.662;2022-11-13T16:21:44;11.50;70.30
31379;DHT22;61664;48.112;11.662;2022-11-13T16:24:11;11.50;70.50
31379;DHT22;61664;48.112;11.662;2022-11-13T16:26:38;11.40;70.60
31379;DHT22;61664;48.112;11.662;2022-11-13T16:29:18;11.30;70.60
31379;DHT22;61664;48.112;11.662;2022-11-13T16:31:47;11.20;70.30
31379;DHT22;61664;48.112;11.662;2022-11-13T16:34:14;11.10;70.70
31379;DHT22;61664;48.112;11.662;2022-11-13T16:36:41;11.10;70.80
31379;DHT22;61664;48.112;11.662;2022-11-13T16:39:13;11.00;70.90
31379;DHT22;61664;48.112;11.662;2022-11-13T16:41:41;10.90;70.80
31379;DHT22;61664;48.112;11.662;2022-11-13T16:44:09;10.80;71.00
31379;DHT22;61664;48.112;11.662;2022-11-13T16:46:37;10.70;71.40
31379;DHT22;61664;48.112;11.662;2022-11-13T16:49:12;10.70;71.00
31379;DHT22;61664;48.112;11.662;2022-11-13T16:51:44;10.60;71.00
31379;DHT22;61664;48.112;11.662;2022-11-13T16:54:12;10.50;71.20
31379;DHT22;61664;48.112;11.662;2022-11-13T16:56:39;10.50;71.40
31379;DHT22;61664;48.112;11.662;2022-11-13T16:59:09;10.40;71.40
31379;DHT22;61664;48.112;11.662;2022-11-13T17:01:37;10.30;71.40
31379;DHT22;61664;48.112;11.662;2022-11-13T17:04:04;10.30;71.60
31379;DHT22;61664;48.112;11.662;2022-11-13T17:06:34;10.20;71.70
31379;DHT22;61664;48.112;11.662;2022-11-13T17:09:03;10.20;71.70
31379;DHT22;61664;48.112;11.662;2022-11-13T17:11:31;10.10;71.70
31379;DHT22;61664;48.112;11.662;2022-11-13T17:14:00;10.00;71.70
31379;DHT22;61664;48.112;11.662;2022-11-13T17:16:29;10.00;71.80
31379;DHT22;61664;48.112;11.662;2022-11-13T17:18:58;10.00;71.90
31379;DHT22;61664;48.112;11.662;2022-11-13T17:21:27;9.90;71.90
31379;DHT22;61664;48.112;11.662;2022-11-13T17:23:59;9.80;71.90
31379;DHT22;61664;48.112;11.662;2022-11-13T17:26:29;9.80;71.80